Time;durP1;ratioP1;P1;durP2;ratioP2;P2;SDS_P1;SDS_P2;PMS_P1;PMS_P2;Temp;Humidity;BMP_temperature;BMP_pressure;BME280_temperature;BME280_humidity;BME280_pressure;Samples;Min_cycle;Max_cycle;Signal;HPM_P1;HPM_P2
2023/01/20 00:00:04;;;;;;;4.47;2.00;;;;;;;;;;5065490;28;20048;-70
2023/01/20 00:02:30;;;;;;;2.75;2.25;;;;;;;;;;5064880;28;20402;-70
2023/01/20 00:04:56;;;;;;;5.90;2.72;;;;;;;;;;5060662;28;20041;-70
2023/01/20 00:07:23;;;;;;;5.63;2.50;;;;;;;;;;5064158;28;20047;-70
2023/01/20 00:09:49;;;;;;;4.63;2.67;;;;;;;;;;5063743;28;20395;-70
2023/01/20 00:12:15;;;;;;;4.15;2.30;;;;;;;;;;5062700;28;20123;-70
2023/01/20 00:14:41;;;;;;;3.95;2.33;;;;;;;;;;5061058;28;20036;-70
2023/01/20 00:17:07;;;;;;;6.40;3.63;;;;;;;;;;5061963;28;20049;-69
2023/01/20 00:19:33;;;;;;;6.38;3.15;;;;;;;;;;5060497;28;20045;-70
2023/01/20 00:21:59;;;;;;;4.40;2.67;;;;;;;;;;5059744;28;20048;-70
2023/01/20 00:24:25;;;;;;;4.72;2.78;;;;;;;;;;5065855;28;20425;-70
2023/01/20 00:26:51;;;;;;;3.92;2.35;;;;;;;;;;5062394;28;20036;-69
2023/01/20 00:29:18;;;;;;;7.60;2.42;;;;;;;;;;5061736;28;20029;-70
2023/01/20 00:31:44;;;;;;;3.58;2.60;;;;;;;;;;5066916;28;20468;-70
2023/01/20 00:34:10;;;;;;;4.18;2.42;;;;;;;;;;5064374;28;20115;-70
2023/01/20 00:36:36;;;;;;;4.03;2.50;;;;;;;;;;5062741;28;20335;-72
2023/01/20 00:39:03;;;;;;;3.78;2.40;;;;;;;;;;5065716;28;20032;-70
2023/01/20 00:41:29;;;;;;;5.38;2.63;;;;;;;;;;5067028;28;20040;-70
2023/01/20 00:43:55;;;;;;;6.00;2.78;;;;;;;;;;5043438;28;20039;-70
2023/01/20 00:46:22;;;;;;;5.47;2.63;;;;;;;;;;5060986;28;20093;-70
2023/01/20 00:48:48;;;;;;;3.75;2.75;;;;;;;;;;5065450;28;20354;-70
2023/01/20 00:51:14;;;;;;;5.35;2.95;;;;;;;;;;5059092;28;20059;-69
2023/01/20 00:53:41;;;;;;;6.47;2.88;;;;;;;;;;5058747;28;20037;-70
2023/01/20 00:56:07;;;;;;;4.53;2.92;;;;;;;;;;5066442;28;20036;-70
2023/01/20 00:58:33;;;;;;;4.53;3.13;;;;;;;;;;5064925;28;20043;-70
2023/01/20 01:01:00;;;;;;;6.47;3.67;;;;;;;;;;5066502;28;20452;-70
2023/01/20 01:03:29;;;;;;;4.72;3.28;;;;;;;;;;5058162;28;20490;-70
2023/01/20 01:06:05;;;;;;;7.30;3.42;;;;;;;;;;5066113;28;20426;-70
2023/01/20 01:08:31;;;;;;;5.32;3.70;;;;;;;;;;5058941;28;20301;-69
2023/01/20 01:10:57;;;;;;;6.35;3.13;;;;;;;;;;5063333;28;20132;-70
2023/01/20 01:13:23;;;;;;;6.93;3.58;;;;;;;;;;5058244;28;20040;-70
2023/01/20 01:15:49;;;;;;;5.68;4.07;;;;;;;;;;5062202;28;20128;-70
2023/01/20 01:18:16;;;;;;;6.90;4.13;;;;;;;;;;5078705;28;20090;-70
2023/01/20 01:20:43;;;;;;;5.70;4.00;;;;;;;;;;5067115;28;20041;-70
2023/01/20 01:23:10;;;;;;;10.48;4.93;;;;;;;;;;5065346;28;20506;-70
2023/01/20 01:25:39;;;;;;;7.18;4.97;;;;;;;;;;5053802;28;20426;-70
2023/01/20 01:28:05;;;;;;;6.70;4.50;;;;;;;;;;5064662;28;20044;-70
2023/01/20 01:30:31;;;;;;;5.70;5.00;;;;;;;;;;5062319;28;20036;-71
2023/01/20 01:32:57;;;;;;;6.28;5.65;;;;;;;;;;5057769;28;20364;-70
2023/01/20 01:35:23;;;;;;;5.95;4.68;;;;;;;;;;5064936;28;20071;-70
2023/01/20 01:37:49;;;;;;;8.40;5.72;;;;;;;;;;5066451;28;20050;-70
2023/01/20 01:40:16;;;;;;;9.52;5.40;;;;;;;;;;5053203;28;20091;-70
2023/01/20 01:42:42;;;;;;;7.03;5.03;;;;;;;;;;5062765;28;20032;-70
2023/01/20 01:45:11;;;;;;;5.57;4.35;;;;;;;;;;5065409;28;20040;-70
2023/01/20 01:47:56;;;;;;;7.05;4.82;;;;;;;;;;5063127;28;20079;-70
2023/01/20 01:50:25;;;;;;;8.25;5.22;;;;;;;;;;5065064;28;20036;-70
2023/01/20 01:52:52;;;;;;;8.23;4.93;;;;;;;;;;5057174;28;20479;-70
2023/01/20 01:55:20;;;;;;;6.88;5.28;;;;;;;;;;5062964;28;20035;-70
2023/01/20 01:57:47;;;;;;;8.27;5.20;;;;;;;;;;5060556;28;20050;-70
2023/01/20 02:00:13;;;;;;;6.78;5.15;;;;;;;;;;5047423;28;20498;-70
2023/01/20 02:02:42;;;;;;;4.82;3.80;;;;;;;;;;5053869;28;20040;-70
2023/01/20 02:05:08;;;;;;;6.03;4.43;;;;;;;;;;5057715;28;20045;-70
2023/01/20 02:07:35;;;;;;;8.23;3.72;;;;;;;;;;5072099;28;20041;-70
2023/01/20 02:10:01;;;;;;;5.38;3.65;;;;;;;;;;5061659;28;20040;-70
2023/01/20 02:12:27;;;;;;;5.97;3.67;;;;;;;;;;5068383;28;20036;-70
2023/01/20 02:14:55;;;;;;;6.13;3.70;;;;;;;;;;5073463;28;20041;-70
2023/01/20 02:17:27;;;;;;;5.32;3.65;;;;;;;;;;5081498;28;20053;-70
2023/01/20 02:20:16;;;;;;;6.32;3.22;;;;;;;;;;5070145;28;20052;-70
2023/01/20 02:22:50;;;;;;;4.13;2.95;;;;;;;;;;5064933;28;20516;-70
2023/01/20 02:25:43;;;;;;;4.00;2.95;;;;;;;;;;5066980;28;20044;-70
2023/01/20 02:28:15;;;;;;;5.18;2.33;;;;;;;;;;5056906;28;20063;-70
2023/01/20 02:31:00;;;;;;;4.57;2.67;;;;;;;;;;5068060;28;20037;-70
2023/01/20 02:33:26;;;;;;;5.13;2.58;;;;;;;;;;5066475;28;20506;-70
2023/01/20 02:35:58;;;;;;;5.25;2.50;;;;;;;;;;5066524;28;20498;-70
2023/01/20 02:38:36;;;;;;;5.00;3.07;;;;;;;;;;5061365;28;20297;-68
2023/01/20 02:41:05;;;;;;;4.20;2.83;;;;;;;;;;5069269;28;20490;-70
2023/01/20 02:43:51;;;;;;;9.63;4.30;;;;;;;;;;5065172;28;20036;-70
2023/01/20 02:46:25;;;;;;;5.50;3.53;;;;;;;;;;5062935;28;20045;-70
2023/01/20 02:49:05;;;;;;;5.60;3.47;;;;;;;;;;5061995;28;20076;-70
2023/01/20 02:51:34;;;;;;;5.20;3.78;;;;;;;;;;5066574;28;20451;-70
2023/01/20 02:54:03;;;;;;;6.63;4.82;;;;;;;;;;5066466;28;20040;-70
2023/01/20 02:56:31;;;;;;;7.15;5.05;;;;;;;;;;5077445;28;20049;-70
2023/01/20 02:59:02;;;;;;;6.43;3.78;;;;;;;;;;5062899;28;20041;-70
2023/01/20 03:01:34;;;;;;;5.68;4.53;;;;;;;;;;5070349;28;20044;-70
2023/01/20 03:04:01;;;;;;;5.43;3.58;;;;;;;;;;5067599;28;20033;-70
2023/01/20 03:06:29;;;;;;;6.95;4.53;;;;;;;;;;5067793;28;20159;-69
2023/01/20 03:08:57;;;;;;;5.68;3.80;;;;;;;;;;5060514;28;20049;-70
2023/01/20 03:11:23;;;;;;;6.95;3.90;;;;;;;;;;5065975;28;20514;-72
2023/01/20 03:13:53;;;;;;;7.38;4.45;;;;;;;;;;5070862;28;20394;-70
2023/01/20 03:16:21;;;;;;;7.88;4.45;;;;;;;;;;5062338;28;20486;-70
2023/01/20 03:18:47;;;;;;;7.70;4.82;;;;;;;;;;5064772;28;20060;-69
2023/01/20 03:21:14;;;;;;;9.55;5.20;;;;;;;;;;5067325;28;20109;-70
2023/01/20 03:23:45;;;;;;;8.13;4.88;;;;;;;;;;5064243;28;20119;-70
2023/01/20 03:26:12;;;;;;;6.05;4.68;;;;;;;;;;5057588;28;20128;-70
2023/01/20 03:28:40;;;;;;;6.63;5.13;;;;;;;;;;5079490;28;20041;-70
2023/01/20 03:31:11;;;;;;;8.20;5.70;;;;;;;;;;5064912;28;20467;-70
2023/01/20 03:33:38;;;;;;;10.10;7.00;;;;;;;;;;5064238;28;20393;-70
2023/01/20 03:36:04;;;;;;;10.52;5.53;;;;;;;;;;5065845;28;20088;-70
2023/01/20 03:38:30;;;;;;;12.18;7.13;;;;;;;;;;5061263;28;20041;-70
2023/01/20 03:41:15;;;;;;;8.48;5.93;;;;;;;;;;5063913;28;20066;-70
2023/01/20 03:43:49;;;;;;;9.15;6.72;;;;;;;;;;5063125;28;20505;-70
2023/01/20 03:46:23;;;;;;;12.93;8.70;;;;;;;;;;5068649;28;20123;-70
2023/01/20 03:48:52;;;;;;;13.32;8.35;;;;;;;;;;5067895;28;20036;-69
2023/01/20 03:51:18;;;;;;;12.75;8.88;;;;;;;;;;5058402;28;20040;-70
2023/01/20 03:53:50;;;;;;;12.35;8.18;;;;;;;;;;5059175;28;20028;-70
2023/01/20 03:56:20;;;;;;;14.13;9.57;;;;;;;;;;5064740;28;20315;-70
2023/01/20 03:58:48;;;;;;;13.85;10.43;;;;;;;;;;5066969;28;20303;-70
2023/01/20 04:01:16;;;;;;;17.17;11.30;;;;;;;;;;5065398;28;20044;-70
2023/01/20 04:03:44;;;;;;;18.42;10.77;;;;;;;;;;5056495;28;20037;-69
2023/01/20 04:06:12;;;;;;;15.63;10.07;;;;;;;;;;5065910;28;20119;-70
2023/01/20 04:08:45;;;;;;;16.25;9.60;;;;;;;;;;5063860;28;20040;-70
2023/01/20 04:11:11;;;;;;;15.60;11.00;;;;;;;;;;5065777;28;20513;-70
2023/01/20 04:13:38;;;;;;;18.08;11.45;;;;;;;;;;5061214;28;20029;-70
2023/01/20 04:16:08;;;;;;;14.30;10.60;;;;;;;;;;5060868;28;20476;-70
2023/01/20 04:18:39;;;;;;;16.55;11.05;;;;;;;;;;5067896;28;20407;-70
2023/01/20 04:21:05;;;;;;;15.27;10.77;;;;;;;;;;5058865;28;20043;-69
2023/01/20 04:23:35;;;;;;;17.17;11.68;;;;;;;;;;5062338;28;20044;-70
2023/01/20 04:26:01;;;;;;;14.77;11.35;;;;;;;;;;5055904;28;20104;-70
2023/01/20 04:28:27;;;;;;;18.83;12.35;;;;;;;;;;5066251;28;20237;-69
2023/01/20 04:30:53;;;;;;;16.15;12.25;;;;;;;;;;5068062;28;20044;-70
2023/01/20 04:33:19;;;;;;;19.38;11.70;;;;;;;;;;5060839;28;20043;-69
2023/01/20 04:35:45;;;;;;;18.13;12.68;;;;;;;;;;5059586;28;20403;-70
2023/01/20 04:38:11;;;;;;;17.33;12.65;;;;;;;;;;5064248;28;20036;-70
2023/01/20 04:40:37;;;;;;;15.70;10.95;;;;;;;;;;5065135;28;20036;-70
2023/01/20 04:43:04;;;;;;;17.45;12.10;;;;;;;;;;5066351;28;20051;-70
2023/01/20 04:45:30;;;;;;;18.63;11.75;;;;;;;;;;5065393;28;20048;-70
2023/01/20 04:47:56;;;;;;;20.13;11.98;;;;;;;;;;5055500;28;20379;-70
2023/01/20 04:50:22;;;;;;;17.60;12.00;;;;;;;;;;5064386;28;20154;-70
2023/01/20 04:52:48;;;;;;;15.43;11.23;;;;;;;;;;5062289;28;20044;-69
2023/01/20 04:55:14;;;;;;;18.35;12.70;;;;;;;;;;5063264;28;20042;-69
2023/01/20 04:57:40;;;;;;;17.85;11.20;;;;;;;;;;5061330;28;20485;-70
2023/01/20 05:00:07;;;;;;;18.40;12.00;;;;;;;;;;5060142;28;20093;-69
2023/01/20 05:02:33;;;;;;;17.92;11.70;;;;;;;;;;5068425;28;20125;-70
2023/01/20 05:04:59;;;;;;;17.73;11.70;;;;;;;;;;5064591;28;20537;-69
2023/01/20 05:07:25;;;;;;;24.52;13.90;;;;;;;;;;5062412;28;20139;-69
2023/01/20 05:09:51;;;;;;;18.80;13.25;;;;;;;;;;5059793;28;20063;-69
2023/01/20 05:12:17;;;;;;;29.55;14.63;;;;;;;;;;5057948;28;20036;-70
2023/01/20 05:14:44;;;;;;;54.45;17.80;;;;;;;;;;5065131;28;20490;-69
2023/01/20 05:17:10;;;;;;;86.78;20.52;;;;;;;;;;5055284;28;20048;-70
2023/01/20 05:19:36;;;;;;;68.05;18.33;;;;;;;;;;5064229;28;20469;-70
2023/01/20 05:22:02;;;;;;;141.23;25.10;;;;;;;;;;5074704;28;20040;-70
2023/01/20 05:24:29;;;;;;;70.38;18.35;;;;;;;;;;5055144;28;20041;-69
2023/01/20 05:26:55;;;;;;;36.03;15.23;;;;;;;;;;5065476;28;20501;-69
2023/01/20 05:29:21;;;;;;;70.88;18.30;;;;;;;;;;5059202;28;20036;-69
2023/01/20 05:31:48;;;;;;;63.63;17.05;;;;;;;;;;5063586;28;20179;-69
2023/01/20 05:34:15;;;;;;;115.65;23.20;;;;;;;;;;5063927;28;20119;-70
2023/01/20 05:36:41;;;;;;;99.60;22.95;;;;;;;;;;5056046;28;20070;-69
2023/01/20 05:39:07;;;;;;;102.15;23.65;;;;;;;;;;5065814;28;20048;-69
2023/01/20 05:41:33;;;;;;;63.38;18.88;;;;;;;;;;5055013;28;20479;-70
2023/01/20 05:43:59;;;;;;;110.00;22.42;;;;;;;;;;5059897;28;20102;-70
2023/01/20 05:46:25;;;;;;;116.85;25.95;;;;;;;;;;5066384;28;20049;-69
2023/01/20 05:48:51;;;;;;;46.25;17.15;;;;;;;;;;5044409;28;20036;-70
2023/01/20 05:51:18;;;;;;;128.35;23.77;;;;;;;;;;5055741;28;20044;-70
2023/01/20 05:53:44;;;;;;;70.25;18.05;;;;;;;;;;5073882;28;20440;-69
2023/01/20 05:56:14;;;;;;;114.45;24.80;;;;;;;;;;5060777;28;20044;-69
2023/01/20 05:58:40;;;;;;;93.45;22.90;;;;;;;;;;5058429;28;20063;-70
2023/01/20 06:01:09;;;;;;;68.85;19.45;;;;;;;;;;5057381;28;20098;-70
2023/01/20 06:03:35;;;;;;;64.13;19.70;;;;;;;;;;5059870;28;20135;-70
2023/01/20 06:06:02;;;;;;;38.05;16.60;;;;;;;;;;5059013;28;20125;-69
2023/01/20 06:08:29;;;;;;;53.90;19.85;;;;;;;;;;5063065;28;20032;-69
2023/01/20 06:10:55;;;;;;;62.40;20.25;;;;;;;;;;5061825;28;20032;-70
2023/01/20 06:13:21;;;;;;;35.47;17.58;;;;;;;;;;5056973;28;20063;-69
2023/01/20 06:16:02;;;;;;;37.50;18.38;;;;;;;;;;5017910;28;20140;-69
2023/01/20 06:18:29;;;;;;;40.50;19.27;;;;;;;;;;5061909;28;20048;-69
2023/01/20 06:20:58;;;;;;;30.48;16.70;;;;;;;;;;5057889;28;20268;-69
2023/01/20 06:23:25;;;;;;;38.75;18.73;;;;;;;;;;5060243;28;20163;-69
2023/01/20 06:25:59;;;;;;;29.98;17.83;;;;;;;;;;5058965;28;20043;-69
2023/01/20 06:28:25;;;;;;;32.80;19.05;;;;;;;;;;5055947;28;20525;-69
2023/01/20 06:30:51;;;;;;;37.70;18.83;;;;;;;;;;5054887;28;20487;-69
2023/01/20 06:33:17;;;;;;;36.92;18.33;;;;;;;;;;5055090;28;20112;-69
2023/01/20 06:35:43;;;;;;;33.42;18.63;;;;;;;;;;5058958;28;20521;-70
2023/01/20 06:38:09;;;;;;;29.25;18.35;;;;;;;;;;5053561;28;20099;-69
2023/01/20 06:40:35;;;;;;;32.03;18.60;;;;;;;;;;5058795;28;20055;-70
2023/01/20 06:43:02;;;;;;;30.80;18.73;;;;;;;;;;5050166;28;20071;-69
2023/01/20 06:45:28;;;;;;;36.03;22.45;;;;;;;;;;5054411;28;20409;-70
2023/01/20 06:47:54;;;;;;;41.95;22.27;;;;;;;;;;5049081;28;20045;-71
2023/01/20 06:50:20;;;;;;;36.85;19.27;;;;;;;;;;5064790;28;20067;-69
2023/01/20 06:52:46;;;;;;;38.95;23.05;;;;;;;;;;5059840;28;20036;-70
2023/01/20 06:55:12;;;;;;;42.58;24.45;;;;;;;;;;5053692;28;20123;-69
2023/01/20 06:57:39;;;;;;;41.67;24.38;;;;;;;;;;5061323;28;20049;-69
2023/01/20 07:00:05;;;;;;;45.03;23.65;;;;;;;;;;5059318;28;20033;-70
2023/01/20 07:02:31;;;;;;;47.38;25.60;;;;;;;;;;5060970;28;20043;-70
2023/01/20 07:04:58;;;;;;;46.03;26.27;;;;;;;;;;5057762;28;20044;-70
2023/01/20 07:07:25;;;;;;;45.15;26.63;;;;;;;;;;5058212;28;20048;-70
2023/01/20 07:09:53;;;;;;;50.70;28.08;;;;;;;;;;5076745;28;20082;-69
2023/01/20 07:12:20;;;;;;;51.28;29.00;;;;;;;;;;5061888;28;20402;-69
2023/01/20 07:14:46;;;;;;;52.92;28.23;;;;;;;;;;5057960;28;20037;-70
2023/01/20 07:17:12;;;;;;;51.03;27.23;;;;;;;;;;5066867;28;20517;-71
2023/01/20 07:19:38;;;;;;;53.40;27.60;;;;;;;;;;5064210;28;20048;-70
2023/01/20 07:22:04;;;;;;;59.55;30.90;;;;;;;;;;5061626;28;20503;-69
2023/01/20 07:24:30;;;;;;;54.17;28.95;;;;;;;;;;5061839;28;20525;-70
2023/01/20 07:26:57;;;;;;;51.28;28.90;;;;;;;;;;5062442;28;20152;-70
2023/01/20 07:29:23;;;;;;;55.63;29.08;;;;;;;;;;5061826;28;20436;-69
2023/01/20 07:31:49;;;;;;;56.17;29.20;;;;;;;;;;5064664;28;20039;-70
2023/01/20 07:34:15;;;;;;;52.92;27.25;;;;;;;;;;5056280;28;20166;-68
2023/01/20 07:36:41;;;;;;;52.30;29.90;;;;;;;;;;5062452;28;20040;-69
2023/01/20 07:39:09;;;;;;;55.13;29.42;;;;;;;;;;5063604;28;20036;-71
2023/01/20 07:41:35;;;;;;;50.58;28.25;;;;;;;;;;5061080;28;20247;-69
2023/01/20 07:44:01;;;;;;;49.85;28.02;;;;;;;;;;5066610;28;20272;-70
2023/01/20 07:46:27;;;;;;;53.67;28.38;;;;;;;;;;5057763;28;20482;-70
2023/01/20 07:48:53;;;;;;;51.17;29.35;;;;;;;;;;5061223;28;20450;-70
2023/01/20 07:51:19;;;;;;;49.47;29.10;;;;;;;;;;5056218;28;20310;-69
2023/01/20 07:53:47;;;;;;;53.15;30.48;;;;;;;;;;5064129;28;20048;-70
2023/01/20 07:56:17;;;;;;;55.58;31.50;;;;;;;;;;5062444;28;20070;-69
2023/01/20 07:58:44;;;;;;;59.55;30.80;;;;;;;;;;5078189;28;20036;-68
2023/01/20 08:01:11;;;;;;;52.35;28.10;;;;;;;;;;5068924;28;20047;-70
2023/01/20 08:03:37;;;;;;;47.97;28.20;;;;;;;;;;5061776;28;20094;-70
2023/01/20 08:06:04;;;;;;;51.90;26.35;;;;;;;;;;5065040;28;20037;-70
2023/01/20 08:08:31;;;;;;;50.78;27.90;;;;;;;;;;5066134;28;20083;-70
2023/01/20 08:10:58;;;;;;;51.53;29.05;;;;;;;;;;5041099;28;20127;-70
2023/01/20 08:13:24;;;;;;;48.97;27.33;;;;;;;;;;5059196;28;20505;-70
2023/01/20 08:15:50;;;;;;;56.42;26.92;;;;;;;;;;5069004;28;20049;-70
2023/01/20 08:18:17;;;;;;;63.88;28.77;;;;;;;;;;5060860;28;20395;-70
2023/01/20 08:20:43;;;;;;;61.95;29.20;;;;;;;;;;5063455;28;20047;-70
2023/01/20 08:23:09;;;;;;;55.88;28.63;;;;;;;;;;5055293;28;20045;-70
2023/01/20 08:25:35;;;;;;;50.63;27.02;;;;;;;;;;5065924;28;20509;-70
2023/01/20 08:28:01;;;;;;;52.83;30.00;;;;;;;;;;5056118;28;20418;-69
2023/01/20 08:30:27;;;;;;;54.60;29.75;;;;;;;;;;5064739;28;20071;-69
2023/01/20 08:32:54;;;;;;;52.95;29.40;;;;;;;;;;5060696;28;20045;-70
2023/01/20 08:35:20;;;;;;;51.10;27.50;;;;;;;;;;5068851;28;20071;-69
2023/01/20 08:37:46;;;;;;;54.60;28.30;;;;;;;;;;5060491;28;20072;-69
2023/01/20 08:40:13;;;;;;;47.55;26.27;;;;;;;;;;5053131;28;20398;-70
2023/01/20 08:42:39;;;;;;;53.33;28.70;;;;;;;;;;5061308;28;20367;-70
2023/01/20 08:45:06;;;;;;;48.58;27.05;;;;;;;;;;5060629;28;20066;-70
2023/01/20 08:47:35;;;;;;;53.53;29.05;;;;;;;;;;5065578;28;20045;-69
2023/01/20 08:50:01;;;;;;;52.53;28.92;;;;;;;;;;5061884;28;20032;-68
2023/01/20 08:52:27;;;;;;;47.53;26.60;;;;;;;;;;5059867;28;20039;-70
2023/01/20 08:54:53;;;;;;;50.90;28.38;;;;;;;;;;5060651;28;20045;-70
2023/01/20 08:57:19;;;;;;;51.60;27.98;;;;;;;;;;5062843;28;20130;-70
2023/01/20 08:59:46;;;;;;;64.53;31.13;;;;;;;;;;5058009;28;20051;-70
2023/01/20 09:02:12;;;;;;;52.72;27.33;;;;;;;;;;5057840;28;20045;-70
2023/01/20 09:04:38;;;;;;;50.75;28.20;;;;;;;;;;5056670;28;20124;-70
2023/01/20 09:07:04;;;;;;;49.17;28.02;;;;;;;;;;5061279;28;20340;-70
2023/01/20 09:09:31;;;;;;;46.88;26.48;;;;;;;;;;5056658;28;20071;-69
2023/01/20 09:11:57;;;;;;;59.03;26.02;;;;;;;;;;5057233;28;20048;-70
2023/01/20 09:14:24;;;;;;;40.92;25.33;;;;;;;;;;5066069;28;20354;-70
2023/01/20 09:16:50;;;;;;;61.25;28.65;;;;;;;;;;5057997;28;20060;-70
2023/01/20 09:19:17;;;;;;;49.78;26.17;;;;;;;;;;5059969;28;20066;-70
2023/01/20 09:21:43;;;;;;;49.53;27.42;;;;;;;;;;5060481;28;20040;-70
2023/01/20 09:24:10;;;;;;;43.22;26.33;;;;;;;;;;5062900;28;20436;-70
2023/01/20 09:26:39;;;;;;;50.70;26.90;;;;;;;;;;5057474;28;20556;-70
2023/01/20 09:29:10;;;;;;;46.88;26.67;;;;;;;;;;5064839;28;20033;-70
2023/01/20 09:31:48;;;;;;;56.42;26.52;;;;;;;;;;5056734;28;20071;-70
2023/01/20 09:34:18;;;;;;;50.42;26.08;;;;;;;;;;5058446;28;20038;-70
2023/01/20 09:36:44;;;;;;;46.95;24.38;;;;;;;;;;5063149;28;20036;-69
2023/01/20 09:45:07;;;;;;;52.10;27.95;;;;;;;;;;5075700;28;20171;-70
2023/01/20 09:47:53;;;;;;;47.70;24.33;;;;;;;;;;5064700;28;20037;-70
2023/01/20 09:53:38;;;;;;;51.80;27.85;;;;;;;;;;5062581;28;20040;-70
2023/01/20 09:56:10;;;;;;;46.20;28.10;;;;;;;;;;5055941;28;20040;-70
2023/01/20 09:58:55;;;;;;;45.57;25.57;;;;;;;;;;5074366;28;20041;-70
2023/01/20 10:01:23;;;;;;;48.75;28.50;;;;;;;;;;5059545;28;20050;-70
2023/01/20 10:03:52;;;;;;;59.22;24.45;;;;;;;;;;5056605;28;20407;-69
2023/01/20 10:06:28;;;;;;;48.97;26.25;;;;;;;;;;5060512;28;20090;-70
2023/01/20 10:09:00;;;;;;;57.63;28.38;;;;;;;;;;5060281;28;20037;-70
2023/01/20 10:11:28;;;;;;;47.22;26.65;;;;;;;;;;5064364;28;20076;-70
2023/01/20 10:14:04;;;;;;;44.75;24.30;;;;;;;;;;5064092;28;20052;-70
2023/01/20 10:16:50;;;;;;;54.30;27.80;;;;;;;;;;5053452;28;20063;-70
2023/01/20 10:19:25;;;;;;;49.95;27.27;;;;;;;;;;5054090;28;20083;-70
2023/01/20 10:22:12;;;;;;;52.55;26.38;;;;;;;;;;5058908;28;20039;-69
2023/01/20 10:24:54;;;;;;;55.75;25.20;;;;;;;;;;5058727;28;20072;-70
2023/01/20 10:27:22;;;;;;;49.22;24.05;;;;;;;;;;5062664;28;20045;-70
2023/01/20 10:29:54;;;;;;;61.25;28.17;;;;;;;;;;5064669;28;20406;-70
2023/01/20 10:32:35;;;;;;;53.43;24.63;;;;;;;;;;5066243;28;20024;-70
2023/01/20 10:35:07;;;;;;;43.97;24.38;;;;;;;;;;5064602;28;20083;-70
2023/01/20 10:37:34;;;;;;;43.65;25.08;;;;;;;;;;5068014;28;20131;-70
2023/01/20 10:40:28;;;;;;;48.05;23.88;;;;;;;;;;5066571;28;20052;-69
2023/01/20 10:42:54;;;;;;;;;;;;;;;;;;5065814;28;20502;-70
2023/01/20 10:45:23;;;;;;;53.83;27.95;;;;;;;;;;5065028;28;19920;-70
2023/01/20 10:47:54;;;;;;;49.00;24.17;;;;;;;;;;5066856;28;20044;-70
2023/01/20 10:50:23;;;;;;;47.75;26.45;;;;;;;;;;5057217;28;20044;-69
2023/01/20 10:52:50;;;;;;;42.30;23.75;;;;;;;;;;5069599;28;20036;-70
2023/01/20 10:55:29;;;;;;;50.58;27.00;;;;;;;;;;5068710;28;20035;-70
2023/01/20 10:58:21;;;;;;;48.75;25.52;;;;;;;;;;5059338;28;20127;-70
2023/01/20 11:00:48;;;;;;;51.80;25.25;;;;;;;;;;5058809;28;20160;-70
2023/01/20 11:03:17;;;;;;;46.97;24.95;;;;;;;;;;5066258;28;20040;-70
2023/01/20 11:05:44;;;;;;;55.47;26.98;;;;;;;;;;5063036;28;20040;-70
2023/01/20 11:08:18;;;;;;;50.60;24.15;;;;;;;;;;5046907;28;20040;-71
2023/01/20 11:10:46;;;;;;;49.33;25.23;;;;;;;;;;5063305;28;20396;-70
2023/01/20 11:13:12;;;;;;;44.90;25.90;;;;;;;;;;5068364;28;20037;-70
2023/01/20 11:15:46;;;;;;;46.25;25.42;;;;;;;;;;5084457;28;20033;-70
2023/01/20 11:18:16;;;;;;;49.15;23.77;;;;;;;;;;5063839;28;20056;-70
2023/01/20 11:20:53;;;;;;;45.80;24.27;;;;;;;;;;5066118;28;20044;-69
2023/01/20 11:23:19;;;;;;;50.50;24.33;;;;;;;;;;5062587;28;20051;-70
2023/01/20 11:25:56;;;;;;;51.05;24.73;;;;;;;;;;5068403;28;20597;-71
2023/01/20 11:28:22;;;;;;;49.08;25.08;;;;;;;;;;5066742;28;20079;-70
2023/01/20 11:30:53;;;;;;;47.70;24.08;;;;;;;;;;5065336;28;20127;-70
2023/01/20 11:33:23;;;;;;;44.67;24.48;;;;;;;;;;5063229;28;20115;-70
2023/01/20 11:35:57;;;;;;;51.65;23.60;;;;;;;;;;5069192;28;20505;-71
2023/01/20 11:38:24;;;;;;;46.33;24.48;;;;;;;;;;5067055;28;20036;-70
2023/01/20 11:40:56;;;;;;;52.30;27.15;;;;;;;;;;5067988;28;20344;-70
2023/01/20 11:43:33;;;;;;;52.67;25.50;;;;;;;;;;5062672;28;20395;-70
2023/01/20 11:46:10;;;;;;;45.03;24.05;;;;;;;;;;5065496;28;20041;-70
2023/01/20 11:48:36;;;;;;;45.22;22.52;;;;;;;;;;5058366;28;20400;-70
2023/01/20 11:51:02;;;;;;;44.03;23.55;;;;;;;;;;5064650;28;20541;-70
2023/01/20 11:53:30;;;;;;;46.08;23.40;;;;;;;;;;5060018;28;20449;-70
2023/01/20 11:56:04;;;;;;;42.58;21.38;;;;;;;;;;5066005;28;20517;-70
2023/01/20 11:58:32;;;;;;;40.95;21.58;;;;;;;;;;5060033;28;20697;-70
2023/01/20 12:01:00;;;;;;;51.90;21.42;;;;;;;;;;5066383;28;20036;-70
2023/01/20 12:03:29;;;;;;;42.97;22.30;;;;;;;;;;5056912;28;20061;-69
2023/01/20 12:06:14;;;;;;;35.85;19.55;;;;;;;;;;5064875;28;20043;-70
2023/01/20 12:08:50;;;;;;;32.60;20.65;;;;;;;;;;5062908;28;20517;-70
2023/01/20 12:11:18;;;;;;;37.53;20.27;;;;;;;;;;5061951;28;20037;-69
2023/01/20 12:16:38;;;;;;;38.38;20.52;;;;;;;;;;5064890;28;20063;-70
2023/01/20 12:19:10;;;;;;;41.47;21.95;;;;;;;;;;5064032;28;20036;-70
2023/01/20 12:21:40;;;;;;;43.30;20.33;;;;;;;;;;5060162;28;20036;-70
2023/01/20 12:24:09;;;;;;;37.90;20.15;;;;;;;;;;5070219;28;20062;-70
2023/01/20 12:26:36;;;;;;;36.53;19.13;;;;;;;;;;5055343;28;20040;-70
2023/01/20 12:29:02;;;;;;;33.15;17.55;;;;;;;;;;5054872;28;20075;-70
2023/01/20 12:31:29;;;;;;;30.20;19.05;;;;;;;;;;5059503;28;20083;-70
2023/01/20 12:33:55;;;;;;;36.60;18.30;;;;;;;;;;5056199;28;20059;-70
2023/01/20 12:36:36;;;;;;;37.28;20.42;;;;;;;;;;5051853;28;20039;-70
2023/01/20 12:39:14;;;;;;;36.80;19.70;;;;;;;;;;5050615;28;20033;-69
2023/01/20 12:41:58;;;;;;;27.08;16.20;;;;;;;;;;5054110;28;20068;-70
2023/01/20 12:44:43;;;;;;;31.88;18.50;;;;;;;;;;5054217;28;20040;-70
2023/01/20 12:47:28;;;;;;;39.47;20.20;;;;;;;;;;5056293;28;20041;-70
2023/01/20 12:50:06;;;;;;;31.08;17.95;;;;;;;;;;5057242;28;20132;-70
2023/01/20 12:52:43;;;;;;;35.03;18.77;;;;;;;;;;5057566;28;20037;-70
2023/01/20 12:55:21;;;;;;;35.83;19.80;;;;;;;;;;5066773;28;20051;-70
2023/01/20 12:57:54;;;;;;;31.30;17.35;;;;;;;;;;5058823;28;20044;-69
2023/01/20 13:00:33;;;;;;;34.15;17.30;;;;;;;;;;5059840;28;20041;-69
2023/01/20 13:03:08;;;;;;;32.35;15.77;;;;;;;;;;5062616;28;20440;-70
2023/01/20 13:05:49;;;;;;;36.42;17.70;;;;;;;;;;5062133;28;20119;-70
2023/01/20 13:08:25;;;;;;;28.55;16.17;;;;;;;;;;5057418;28;20045;-70
2023/01/20 13:10:55;;;;;;;24.40;15.25;;;;;;;;;;5065041;28;20110;-70
2023/01/20 13:13:27;;;;;;;26.95;14.68;;;;;;;;;;5062240;28;20037;-70
2023/01/20 13:15:59;;;;;;;26.08;15.93;;;;;;;;;;5064833;28;20063;-70
2023/01/20 13:18:44;;;;;;;31.23;15.30;;;;;;;;;;5062942;28;20075;-70
2023/01/20 13:21:19;;;;;;;33.63;16.02;;;;;;;;;;5059677;28;20041;-70
2023/01/20 13:23:46;;;;;;;24.25;14.73;;;;;;;;;;5076368;28;20052;-70
2023/01/20 13:26:13;;;;;;;27.73;15.80;;;;;;;;;;5061216;28;20041;-72
2023/01/20 13:28:49;;;;;;;26.25;15.57;;;;;;;;;;5050272;28;20049;-70
2023/01/20 13:31:28;;;;;;;34.08;17.02;;;;;;;;;;5049788;28;20037;-69
2023/01/20 13:34:14;;;;;;;27.77;15.30;;;;;;;;;;5054558;28;20045;-70
2023/01/20 13:37:01;;;;;;;28.00;16.63;;;;;;;;;;5052304;28;20338;-69
2023/01/20 13:39:32;;;;;;;29.08;14.98;;;;;;;;;;5059151;28;20094;-69
2023/01/20 13:41:58;;;;;;;31.55;14.45;;;;;;;;;;5056780;28;20491;-69
2023/01/20 13:44:34;;;;;;;36.00;17.63;;;;;;;;;;5054052;28;20040;-70
2023/01/20 13:47:00;;;;;;;30.25;16.73;;;;;;;;;;5050784;28;20033;-70
2023/01/20 13:49:45;;;;;;;33.80;19.77;;;;;;;;;;5050631;28;20041;-69
2023/01/20 13:52:12;;;;;;;36.95;17.15;;;;;;;;;;5047841;28;20040;-69
2023/01/20 13:54:42;;;;;;;34.70;18.95;;;;;;;;;;5052668;28;20043;-70
2023/01/20 13:57:24;;;;;;;37.40;19.08;;;;;;;;;;5051688;28;20091;-70
2023/01/20 13:59:51;;;;;;;34.92;17.73;;;;;;;;;;5058958;28;20041;-69
2023/01/20 14:02:21;;;;;;;33.13;16.92;;;;;;;;;;5054773;28;20509;-70
2023/01/20 14:04:48;;;;;;;29.20;16.98;;;;;;;;;;5060385;28;20116;-70
2023/01/20 14:07:24;;;;;;;33.25;18.50;;;;;;;;;;5058771;28;20495;-69
2023/01/20 14:10:00;;;;;;;32.63;16.35;;;;;;;;;;5063509;28;20036;-70
2023/01/20 14:12:27;;;;;;;30.50;17.10;;;;;;;;;;5062645;28;20493;-70
2023/01/20 14:14:54;;;;;;;26.17;16.25;;;;;;;;;;5051706;28;20466;-69
2023/01/20 14:17:22;;;;;;;32.92;16.58;;;;;;;;;;5062101;28;20064;-70
2023/01/20 14:19:50;;;;;;;31.40;15.93;;;;;;;;;;5075085;28;20113;-70
2023/01/20 14:22:17;;;;;;;28.15;15.85;;;;;;;;;;5055206;28;20052;-69
2023/01/20 14:24:44;;;;;;;32.28;17.55;;;;;;;;;;5058327;28;20052;-70
2023/01/20 14:27:16;;;;;;;36.45;18.63;;;;;;;;;;5060213;28;20391;-70
2023/01/20 14:29:43;;;;;;;35.72;18.45;;;;;;;;;;5049226;28;20049;-70
2023/01/20 14:32:30;;;;;;;34.15;19.42;;;;;;;;;;5050501;28;20116;-69
2023/01/20 14:34:56;;;;;;;39.58;20.15;;;;;;;;;;5045391;28;20052;-70
2023/01/20 14:37:22;;;;;;;39.15;19.90;;;;;;;;;;5055713;28;20055;-70
2023/01/20 14:39:49;;;;;;;36.38;18.02;;;;;;;;;;5048503;28;20107;-70
2023/01/20 14:42:18;;;;;;;37.90;19.25;;;;;;;;;;5064161;28;20068;-70
2023/01/20 14:44:46;;;;;;;43.13;19.73;;;;;;;;;;5049339;28;20469;-71
2023/01/20 14:47:13;;;;;;;42.95;20.55;;;;;;;;;;5054007;28;20402;-70